Vers la page d'accueil de NAV CANADA Ouverture d'une nouvelle session Chercher sur le site AWWS Clause de non-reponsabilité To the equivalent English page Trucs et astuces FAQ Quoi de neuf sur le site Vers la section Prévisions et observations / NOTAM Vers le site web pour <<Déposer un plan de vol>> Publications et liens importants Mise à jour du profil d'usager Numéros de téléphone des FIC Mes données météo personnelles Données météo de route Données météo régionales Données météo locales Vers la section Prévisions et observations / NOTAM
Requête générée le 2021/04/12 à 04:02:49 UTC. L'information météorologique disponible à ce moment est affichée.

METAR/TAF

Si vous notez des différences entre le METAR/TAF codé et le METAR/TAF en langage clair, veuillez utiliser la version codée. Les bulletins LWIS ne sont pas décodés en langage clair.

SHERBROOKE/QC    (voir Cam météo)

METAR CYSC 120400Z AUTO 06004KT 9SM FEW250 07/00 A2980 RMK SLP096=
METAR
LIEU
CYSC - SHERBROOKE/QC
DATE - HEURE
12 AVRIL 2021 - 0400 UTC
VENT
60 VRAIS @ 4  NOEUDS
VISIBILITE
9 MILLES TERR.
PORTEE VISUELLE DE PISTE
METEO
NEBULOSITE
QUELQUES NUAGES (1/8 - 2/8) 25000  PI
TEMP / PT DE ROSEE
7 C / 0 C
ALTIMETRE
29.80 PO HG
TEMPS RECENT
CISAILLEMENT

METAR CYSC 120300Z AUTO 09005KT 9SM CLR 09/M01 A2979 RMK SLP092=
METAR
LIEU
CYSC - SHERBROOKE/QC
DATE - HEURE
12 AVRIL 2021 - 0300 UTC
VENT
90 VRAIS @ 5  NOEUDS
VISIBILITE
9 MILLES TERR.
PORTEE VISUELLE DE PISTE
METEO
NEBULOSITE
CIEL DEGAGE
TEMP / PT DE ROSEE
9 C / -1 C
ALTIMETRE
29.79 PO HG
TEMPS RECENT
CISAILLEMENT

METAR CYSC 120200Z AUTO 10006KT 9SM CLR 10/M01 A2977 RMK SLP087=
METAR
LIEU
CYSC - SHERBROOKE/QC
DATE - HEURE
12 AVRIL 2021 - 0200 UTC
VENT
100 VRAIS @ 6  NOEUDS
VISIBILITE
9 MILLES TERR.
PORTEE VISUELLE DE PISTE
METEO
NEBULOSITE
CIEL DEGAGE
TEMP / PT DE ROSEE
10 C / -1 C
ALTIMETRE
29.77 PO HG
TEMPS RECENT
CISAILLEMENT

*** REMARQUE : La période de prévision est échue; ceci était le dernier TAF qui a été émis
TAF CYSC 112338Z 1200/1203 06010KT P6SM SKC RMK FCST BASED ON AUTO OBS. NXT FCST WILL BE ISSUED AT 121045Z=
TAF
LIEU

CYSC - SHERBROOKE/QC
VALIDITE [UTC]
11 APR - 2338 à
12 APR - 0300
 
PERIODES
[UTC]
VENT
[DEGRES VRAIS]
VISIBILITE
[MILLES TERR.]
METEO
NEBULOSITE
[PIEDS AGL]
 
12 APR - 0000 à
12 APR - 0300
60 @ 10 NOEUDS
6+
---
CIEL DEGAGE
REMARQUES
LA PREVISION EST FONDEE SUR DES OBSERVATIONS AUTOMATISEES - LA PREVISION SUIVANTE SERA EMISE A 1045 UTC LE 12


Votre heure Heure UTC
Données météorologiques fournies par Environnement Canada et NAV CANADA